Time;durP1;ratioP1;P1;durP2;ratioP2;P2;SDS_P1;SDS_P2;PMS_P1;PMS_P2;Temp;Humidity;BMP_temperature;BMP_pressure;BME280_temperature;BME280_humidity;BME280_pressure;Samples;Min_cycle;Max_cycle;Signal;HPM_P1;HPM_P2
2023/06/07 00:01:08;;;;;;;16.13;7.43;;;10.40;99.90;;;;;;5034437;28;20141;-87
2023/06/07 00:03:36;;;;;;;19.25;7.63;;;10.40;99.90;;;;;;5034061;28;20041;-87
2023/06/07 00:06:01;;;;;;;19.83;8.00;;;10.40;99.90;;;;;;5034684;28;20420;-87
2023/06/07 00:08:28;;;;;;;18.23;7.95;;;10.40;99.90;;;;;;5032624;28;20124;-87
2023/06/07 00:10:55;;;;;;;20.75;7.80;;;10.40;99.90;;;;;;5033856;28;20088;-88
2023/06/07 00:13:20;;;;;;;21.80;8.65;;;10.30;99.90;;;;;;5034325;28;20469;-87
2023/06/07 00:15:46;;;;;;;20.48;7.70;;;10.30;99.90;;;;;;5032651;28;20049;-87
2023/06/07 00:18:12;;;;;;;20.00;7.80;;;10.30;99.90;;;;;;5034522;28;20132;-88
2023/06/07 00:20:37;;;;;;;16.63;8.10;;;10.20;99.90;;;;;;5033066;28;20041;-87
2023/06/07 00:23:04;;;;;;;17.27;7.50;;;10.20;99.90;;;;;;5034097;28;20049;-87
2023/06/07 00:25:30;;;;;;;19.33;8.05;;;10.20;99.90;;;;;;5032974;28;20049;-87
2023/06/07 00:27:56;;;;;;;22.27;7.95;;;10.10;99.90;;;;;;5034671;28;20083;-87
2023/06/07 00:30:21;;;;;;;21.27;8.30;;;10.10;99.90;;;;;;5031873;28;20056;-88
2023/06/07 00:32:47;;;;;;;18.65;7.78;;;10.10;99.90;;;;;;5034477;28;20048;-87
2023/06/07 00:35:13;;;;;;;22.25;8.05;;;10.10;99.90;;;;;;5033585;28;20045;-88
2023/06/07 00:37:39;;;;;;;20.30;7.80;;;10.10;99.90;;;;;;5033037;28;20049;-87
2023/06/07 00:40:05;;;;;;;18.65;7.43;;;10.00;99.90;;;;;;5033295;28;20072;-88
2023/06/07 00:42:34;;;;;;;18.02;7.78;;;10.00;99.90;;;;;;5032561;28;20041;-88
2023/06/07 00:44:59;;;;;;;17.85;7.90;;;10.00;99.90;;;;;;5032636;28;20136;-87
2023/06/07 00:47:26;;;;;;;14.90;7.70;;;10.00;99.90;;;;;;5034035;28;20203;-87
2023/06/07 00:49:53;;;;;;;17.27;7.78;;;10.80;99.90;;;;;;5032096;28;20136;-87
2023/06/07 00:52:19;;;;;;;18.15;7.70;;;10.00;99.90;;;;;;5034049;28;20112;-87
2023/06/07 00:54:45;;;;;;;21.02;8.18;;;10.10;99.90;;;;;;5032458;28;20494;-87
2023/06/07 00:57:13;;;;;;;18.42;8.60;;;9.90;99.90;;;;;;5033059;28;20192;-88
2023/06/07 00:59:39;;;;;;;19.40;7.95;;;9.90;99.90;;;;;;5033630;28;20042;-87
2023/06/07 01:02:05;;;;;;;20.30;7.45;;;9.90;99.90;;;;;;5032409;28;20041;-88
2023/06/07 01:04:30;;;;;;;18.42;7.90;;;9.90;99.90;;;;;;5031514;28;20050;-87
2023/06/07 01:06:57;;;;;;;17.45;8.10;;;9.90;99.90;;;;;;5032345;28;20053;-87
2023/06/07 01:09:24;;;;;;;17.67;7.88;;;9.80;99.90;;;;;;5033647;28;20120;-87
2023/06/07 01:11:52;;;;;;;19.13;8.15;;;9.80;99.90;;;;;;5031849;28;20041;-88
2023/06/07 01:14:19;;;;;;;17.67;8.13;;;9.80;99.90;;;;;;5032201;28;20063;-87
2023/06/07 01:16:50;;;;;;;17.73;7.88;;;9.80;99.90;;;;;;5032311;28;20041;-88
2023/06/07 01:19:22;;;;;;;19.70;8.38;;;9.80;99.90;;;;;;5036341;28;20045;-87
2023/06/07 01:21:51;;;;;;;20.25;8.50;;;10.40;99.90;;;;;;5035163;28;20136;-87
2023/06/07 01:24:18;;;;;;;18.83;7.85;;;9.80;99.90;;;;;;5031878;28;20045;-88
2023/06/07 01:26:52;;;;;;;18.48;7.80;;;10.10;99.90;;;;;;5032712;28;20045;-87
2023/06/07 01:29:18;;;;;;;18.70;8.23;;;10.20;99.90;;;;;;5031885;28;20045;-87
2023/06/07 01:31:44;;;;;;;17.02;8.45;;;10.40;99.90;;;;;;5031603;28;20049;-87
2023/06/07 01:34:12;;;;;;;20.70;8.40;;;10.20;99.90;;;;;;5057882;28;20021;-88
2023/06/07 01:36:39;;;;;;;19.98;8.00;;;9.70;99.90;;;;;;5049201;28;20037;-87
2023/06/07 01:39:06;;;;;;;18.00;7.95;;;9.60;99.90;;;;;;5035422;28;20041;-87
2023/06/07 01:41:33;;;;;;;17.17;7.75;;;9.60;99.90;;;;;;5032288;28;20053;-87
2023/06/07 01:43:59;;;;;;;18.67;8.43;;;9.60;99.90;;;;;;5033594;28;20049;-87
2023/06/07 01:46:26;;;;;;;17.75;7.88;;;9.60;99.90;;;;;;5032711;28;20469;-87
2023/06/07 01:48:52;;;;;;;17.83;7.82;;;9.60;99.90;;;;;;5031974;28;20103;-87
2023/06/07 01:51:17;;;;;;;18.70;7.90;;;10.60;99.90;;;;;;5031398;28;20042;-87
2023/06/07 01:53:45;;;;;;;16.60;7.90;;;9.60;99.90;;;;;;5032158;28;20111;-88
2023/06/07 01:56:22;;;;;;;21.00;7.95;;;9.50;99.90;;;;;;5033028;28;20041;-88
2023/06/07 01:59:06;;;;;;;19.40;7.60;;;10.60;99.90;;;;;;5031747;28;20052;-87
2023/06/07 02:01:42;;;;;;;18.38;7.82;;;9.50;99.90;;;;;;5043545;28;20033;-87
2023/06/07 02:04:10;;;;;;;17.88;7.55;;;9.50;99.90;;;;;;5051537;28;20071;-87
2023/06/07 02:06:43;;;;;;;18.90;7.43;;;9.50;99.90;;;;;;5050347;28;20496;-87
2023/06/07 02:09:11;;;;;;;19.63;8.73;;;9.50;99.90;;;;;;5052634;28;20041;-87
2023/06/07 02:11:41;;;;;;;24.13;9.00;;;9.50;99.90;;;;;;5051633;28;20339;-87
2023/06/07 02:14:08;;;;;;;21.77;9.00;;;9.50;99.90;;;;;;5051959;28;20037;-87
2023/06/07 02:16:37;;;;;;;21.63;9.00;;;10.10;99.90;;;;;;5052974;28;20048;-87
2023/06/07 02:19:07;;;;;;;22.48;8.48;;;9.40;99.90;;;;;;5052889;28;20077;-87
2023/06/07 02:21:37;;;;;;;21.17;8.68;;;9.40;99.90;;;;;;5050627;28;20060;-87
2023/06/07 02:24:06;;;;;;;20.45;8.38;;;9.40;99.90;;;;;;5051918;28;20045;-87
2023/06/07 02:26:33;;;;;;;18.25;8.60;;;9.40;99.90;;;;;;5052840;28;20052;-87
2023/06/07 02:28:59;;;;;;;21.50;8.52;;;9.40;99.90;;;;;;5051972;28;20037;-87
2023/06/07 02:31:25;;;;;;;20.23;9.48;;;9.40;99.90;;;;;;5051137;28;20048;-87
2023/06/07 02:33:51;;;;;;;20.42;8.90;;;9.40;99.90;;;;;;5051232;28;20052;-87
2023/06/07 02:36:32;;;;;;;20.77;9.07;;;9.40;99.90;;;;;;5050036;28;20045;-88
2023/06/07 02:38:58;;;;;;;22.20;7.93;;;9.40;99.90;;;;;;5051231;28;20111;-87
2023/06/07 02:41:23;;;;;;;23.60;8.18;;;9.40;99.90;;;;;;5052407;28;20475;-87
2023/06/07 02:43:49;;;;;;;19.98;8.45;;;10.00;99.90;;;;;;5050546;28;20554;-87
2023/06/07 02:46:15;;;;;;;23.70;8.85;;;9.30;99.90;;;;;;5050711;28;20045;-87
2023/06/07 02:48:40;;;;;;;20.20;8.68;;;9.30;99.90;;;;;;5051100;28;20397;-88
2023/06/07 02:51:06;;;;;;;22.70;8.68;;;9.30;99.90;;;;;;5050033;28;20146;-87
2023/06/07 02:53:32;;;;;;;20.42;8.70;;;9.30;99.90;;;;;;5058790;28;20512;-87
2023/06/07 02:55:57;;;;;;;18.70;8.35;;;9.30;99.90;;;;;;5054500;28;20049;-88
2023/06/07 02:58:24;;;;;;;19.45;8.52;;;9.70;99.90;;;;;;5055897;28;20080;-88
2023/06/07 03:00:49;;;;;;;20.13;8.55;;;9.20;99.90;;;;;;5054825;28;20063;-87
2023/06/07 03:03:18;;;;;;;20.10;9.02;;;9.60;99.90;;;;;;5055110;28;20392;-87
2023/06/07 03:05:48;;;;;;;21.73;8.90;;;10.00;99.90;;;;;;5054584;28;20052;-88
2023/06/07 03:08:13;;;;;;;20.92;9.10;;;9.20;99.90;;;;;;5055818;28;20045;-87
2023/06/07 03:10:39;;;;;;;19.92;8.60;;;9.20;99.90;;;;;;5054131;28;20060;-87
2023/06/07 03:13:05;;;;;;;22.77;9.07;;;9.20;99.90;;;;;;5055686;28;20051;-87
2023/06/07 03:15:32;;;;;;;22.92;9.48;;;9.20;99.90;;;;;;5054550;28;20040;-87
2023/06/07 03:17:58;;;;;;;24.83;9.07;;;9.20;99.90;;;;;;5054152;28;20534;-87
2023/06/07 03:20:24;;;;;;;20.23;9.25;;;9.20;99.90;;;;;;5053998;28;20044;-87
2023/06/07 03:22:50;;;;;;;21.75;8.60;;;9.40;99.90;;;;;;5054385;28;20412;-87
2023/06/07 03:25:16;;;;;;;25.00;9.35;;;9.20;99.90;;;;;;5054395;28;20066;-87
2023/06/07 03:27:41;;;;;;;20.27;9.50;;;9.20;99.90;;;;;;5054382;28;20053;-87
2023/06/07 03:30:07;;;;;;;25.30;9.23;;;9.20;99.90;;;;;;5055306;28;20052;-87
2023/06/07 03:32:33;;;;;;;23.65;9.65;;;9.20;99.90;;;;;;5052990;28;20037;-87
2023/06/07 03:34:59;;;;;;;28.60;8.95;;;9.20;99.90;;;;;;5053927;28;20045;-87
2023/06/07 03:37:25;;;;;;;21.95;8.48;;;9.20;99.90;;;;;;5054554;28;20064;-87
2023/06/07 03:39:50;;;;;;;22.77;8.40;;;9.20;99.90;;;;;;5053273;28;20142;-87
2023/06/07 03:42:16;;;;;;;22.77;9.38;;;9.30;99.90;;;;;;5054093;28;20048;-87
2023/06/07 03:44:41;;;;;;;22.70;8.90;;;10.30;99.90;;;;;;5054615;28;20048;-87
2023/06/07 03:47:07;;;;;;;24.83;8.73;;;9.30;99.90;;;;;;5052772;28;20480;-86
2023/06/07 03:49:32;;;;;;;20.00;8.68;;;10.10;99.90;;;;;;5054373;28;20076;-87
2023/06/07 03:51:58;;;;;;;18.42;8.27;;;9.40;99.90;;;;;;5054830;28;20512;-87
2023/06/07 03:54:24;;;;;;;28.75;9.18;;;9.40;99.90;;;;;;5053822;28;20053;-86
2023/06/07 03:56:49;;;;;;;23.17;8.77;;;9.40;99.90;;;;;;5054823;28;20048;-87
2023/06/07 03:59:15;;;;;;;20.55;7.78;;;9.50;99.90;;;;;;5054161;28;20041;-87
2023/06/07 04:01:41;;;;;;;21.73;8.38;;;9.50;99.90;;;;;;5046124;28;20136;-87
2023/06/07 04:04:09;;;;;;;23.77;8.32;;;9.60;99.90;;;;;;5038810;28;20053;-88
2023/06/07 04:06:36;;;;;;;19.83;8.20;;;10.40;99.90;;;;;;5032102;28;20576;-86
2023/06/07 04:09:03;;;;;;;18.48;7.55;;;9.70;99.90;;;;;;5034767;28;20049;-87
2023/06/07 04:11:29;;;;;;;21.98;7.95;;;9.70;99.90;;;;;;5034560;28;20053;-87
2023/06/07 04:13:54;;;;;;;22.05;8.05;;;9.80;99.90;;;;;;5032703;28;20378;-87
2023/06/07 04:16:20;;;;;;;20.60;7.57;;;9.80;99.90;;;;;;5033084;28;20041;-87
2023/06/07 04:18:46;;;;;;;20.17;7.47;;;9.90;99.90;;;;;;5033734;28;20042;-87
2023/06/07 04:21:13;;;;;;;21.98;7.32;;;9.90;99.90;;;;;;5033654;28;20111;-88
2023/06/07 04:23:39;;;;;;;20.67;7.78;;;10.00;99.90;;;;;;5033198;28;20103;-87
2023/06/07 04:26:06;;;;;;;20.27;7.00;;;10.60;99.90;;;;;;5036738;28;20041;-88
2023/06/07 04:28:32;;;;;;;19.83;7.28;;;11.10;99.90;;;;;;5036318;28;20059;-87
2023/06/07 04:30:58;;;;;;;17.95;7.10;;;10.10;99.90;;;;;;5033642;28;20092;-87
2023/06/07 04:33:24;;;;;;;25.52;7.43;;;10.20;99.90;;;;;;5034255;28;20037;-87
2023/06/07 04:35:50;;;;;;;20.75;8.00;;;10.20;99.90;;;;;;5037947;28;20047;-87
2023/06/07 04:38:21;;;;;;;23.10;7.68;;;10.30;99.90;;;;;;5058036;28;20100;-86
2023/06/07 04:40:49;;;;;;;17.58;6.90;;;10.30;99.90;;;;;;5043381;28;20049;-87
2023/06/07 04:43:18;;;;;;;18.98;6.97;;;10.40;99.90;;;;;;5035246;28;20042;-87
2023/06/07 04:45:54;;;;;;;20.70;7.57;;;10.50;99.90;;;;;;5033231;28;20037;-87
2023/06/07 04:48:25;;;;;;;19.45;7.10;;;10.50;99.90;;;;;;5032019;28;20052;-87
2023/06/07 04:50:53;;;;;;;18.15;7.35;;;10.60;99.90;;;;;;5033999;28;20045;-87
2023/06/07 04:53:22;;;;;;;18.27;8.05;;;10.60;99.90;;;;;;5033960;28;20054;-88
2023/06/07 04:55:48;;;;;;;21.27;7.30;;;10.60;99.90;;;;;;5032010;28;20056;-87
2023/06/07 04:58:16;;;;;;;20.42;7.10;;;10.80;99.90;;;;;;5032627;28;20045;-87
2023/06/07 05:00:42;;;;;;;20.73;7.55;;;10.80;99.90;;;;;;5032722;28;20051;-87
2023/06/07 05:03:08;;;;;;;18.42;6.68;;;10.90;99.90;;;;;;5031940;28;20092;-86
2023/06/07 05:05:34;;;;;;;17.95;7.55;;;10.90;99.90;;;;;;5034755;28;20440;-87
2023/06/07 05:08:01;;;;;;;20.40;6.65;;;11.40;99.90;;;;;;5032705;28;20068;-87
2023/06/07 05:10:27;;;;;;;21.83;6.97;;;11.00;99.90;;;;;;5031474;28;20049;-87
2023/06/07 05:12:53;;;;;;;16.33;5.93;;;11.10;99.90;;;;;;5032596;28;20115;-87
2023/06/07 05:15:18;;;;;;;18.10;6.53;;;11.20;99.90;;;;;;5033019;28;20052;-87
2023/06/07 05:17:48;;;;;;;19.38;6.47;;;11.20;99.90;;;;;;5032775;28;20048;-87
2023/06/07 05:20:15;;;;;;;19.55;5.88;;;12.10;99.90;;;;;;5032028;28;20698;-88
2023/06/07 05:22:41;;;;;;;17.83;6.70;;;11.40;99.90;;;;;;5034047;28;20052;-88
2023/06/07 05:25:14;;;;;;;20.30;5.88;;;11.40;99.90;;;;;;5031823;28;20396;-88
2023/06/07 05:27:41;;;;;;;17.67;5.63;;;11.50;99.90;;;;;;5033636;28;20041;-87
2023/06/07 05:30:07;;;;;;;13.52;5.03;;;11.50;99.90;;;;;;5031929;28;20046;-87
2023/06/07 05:32:33;;;;;;;19.90;5.28;;;11.60;99.90;;;;;;5032399;28;20459;-87
2023/06/07 05:34:59;;;;;;;21.58;5.90;;;11.70;99.90;;;;;;5033395;28;20081;-88
2023/06/07 05:37:26;;;;;;;18.65;5.68;;;11.80;99.90;;;;;;5032327;28;20500;-88
2023/06/07 05:39:52;;;;;;;18.70;5.88;;;12.30;99.90;;;;;;5031689;28;20053;-87
2023/06/07 05:42:18;;;;;;;17.23;5.55;;;11.90;99.90;;;;;;5032185;28;20044;-87
2023/06/07 05:44:49;;;;;;;14.82;5.10;;;12.60;99.90;;;;;;5031244;28;20042;-88
2023/06/07 05:47:16;;;;;;;15.48;5.32;;;12.10;99.90;;;;;;5032640;28;20397;-86
2023/06/07 05:49:45;;;;;;;23.08;5.85;;;12.10;99.90;;;;;;5031972;28;20049;-87
2023/06/07 05:52:11;;;;;;;18.70;5.32;;;12.20;99.90;;;;;;5030833;28;20095;-87
2023/06/07 05:54:47;;;;;;;15.32;5.25;;;12.60;99.90;;;;;;5031501;28;20065;-87
2023/06/07 05:57:12;;;;;;;18.85;5.28;;;13.10;99.90;;;;;;5031647;28;20080;-87
2023/06/07 05:59:38;;;;;;;14.55;4.63;;;12.40;99.90;;;;;;5033981;28;20077;-87
2023/06/07 06:02:04;;;;;;;20.08;4.90;;;12.40;99.90;;;;;;5032951;28;20451;-87
2023/06/07 06:04:30;;;;;;;19.15;5.10;;;12.60;99.90;;;;;;5033072;28;20081;-88
2023/06/07 06:06:56;;;;;;;13.10;5.18;;;12.70;99.90;;;;;;5032142;28;20513;-88
2023/06/07 06:09:22;;;;;;;14.90;5.00;;;12.60;99.90;;;;;;5032505;28;20045;-88
2023/06/07 06:11:48;;;;;;;14.75;4.70;;;12.80;99.90;;;;;;5033232;28;20113;-88
2023/06/07 06:14:13;;;;;;;19.02;5.90;;;13.20;99.90;;;;;;5031712;28;20583;-87
2023/06/07 06:16:39;;;;;;;14.77;4.60;;;12.80;99.90;;;;;;5033082;28;20092;-87
2023/06/07 06:19:04;;;;;;;16.73;4.60;;;12.70;99.90;;;;;;5033105;28;20147;-87
2023/06/07 06:21:30;;;;;;;13.57;4.53;;;12.70;99.90;;;;;;5030835;28;20113;-88
2023/06/07 06:23:55;;;;;;;19.35;4.53;;;13.20;99.90;;;;;;5031761;28;20046;-87
2023/06/07 06:26:21;;;;;;;14.93;4.82;;;13.50;99.90;;;;;;5031441;28;20053;-87
2023/06/07 06:28:47;;;;;;;16.85;5.53;;;12.90;99.90;;;;;;5035660;28;20037;-88
2023/06/07 06:31:13;;;;;;;17.10;5.28;;;12.90;99.90;;;;;;5035925;28;20065;-88
2023/06/07 06:33:38;;;;;;;14.90;4.97;;;13.20;99.90;;;;;;5037056;28;20077;-88
2023/06/07 06:36:04;;;;;;;17.30;5.72;;;13.80;99.90;;;;;;5035848;28;20049;-88
2023/06/07 06:38:30;;;;;;;15.18;4.70;;;13.20;99.90;;;;;;5036441;28;20033;-87
2023/06/07 06:40:55;;;;;;;15.82;4.93;;;13.20;99.90;;;;;;5034747;28;20095;-88
2023/06/07 06:43:21;;;;;;;15.60;5.20;;;13.20;99.90;;;;;;5034994;28;20574;-87
2023/06/07 06:45:46;;;;;;;16.75;5.47;;;13.20;99.90;;;;;;5036581;28;20048;-88
2023/06/07 06:48:12;;;;;;;12.65;4.45;;;13.10;99.90;;;;;;5034175;28;20045;-88
2023/06/07 06:50:38;;;;;;;14.70;5.03;;;13.10;99.90;;;;;;5035173;28;20221;-87
2023/06/07 06:53:03;;;;;;;16.40;4.82;;;13.00;99.90;;;;;;5036375;28;20053;-87
2023/06/07 06:55:30;;;;;;;17.73;5.30;;;13.00;99.90;;;;;;5035497;28;20084;-88
2023/06/07 06:57:55;;;;;;;17.08;5.40;;;13.80;99.90;;;;;;5036363;28;20095;-88
2023/06/07 07:00:21;;;;;;;14.57;4.88;;;13.50;99.90;;;;;;5036185;28;20041;-86
2023/06/07 07:02:47;;;;;;;14.48;4.90;;;13.10;99.90;;;;;;5033974;28;20048;-83
2023/06/07 07:05:13;;;;;;;15.48;4.78;;;14.10;99.90;;;;;;5035809;28;20045;-82
2023/06/07 07:07:39;;;;;;;17.15;4.90;;;13.30;99.90;;;;;;5036170;28;20046;-83
2023/06/07 07:10:06;;;;;;;15.80;4.93;;;13.30;99.90;;;;;;5035008;28;20095;-83
2023/06/07 07:12:31;;;;;;;14.57;4.97;;;13.40;99.90;;;;;;5034510;28;20081;-83
2023/06/07 07:14:57;;;;;;;17.27;4.70;;;14.30;99.90;;;;;;5034392;28;20087;-83
2023/06/07 07:17:22;;;;;;;14.70;5.97;;;14.40;99.90;;;;;;5034644;28;20042;-83
2023/06/07 07:19:48;;;;;;;13.77;5.00;;;13.60;99.90;;;;;;5035894;28;20124;-83
2023/06/07 07:22:13;;;;;;;16.50;5.40;;;13.70;99.90;;;;;;5035345;28;20180;-83
2023/06/07 07:24:39;;;;;;;14.88;4.93;;;13.80;99.90;;;;;;5034803;28;20081;-84
2023/06/07 07:27:08;;;;;;;16.63;4.80;;;13.90;99.90;;;;;;5034113;28;20409;-83
2023/06/07 07:29:33;;;;;;;14.38;5.50;;;14.00;99.90;;;;;;5035900;28;20045;-83
2023/06/07 07:31:59;;;;;;;15.93;4.63;;;14.30;99.90;;;;;;5033773;28;20382;-84
2023/06/07 07:34:25;;;;;;;17.15;4.93;;;14.20;99.90;;;;;;5034135;28;20582;-83
2023/06/07 07:36:51;;;;;;;12.85;4.30;;;14.30;99.90;;;;;;5040051;28;20048;-83
2023/06/07 07:39:17;;;;;;;14.98;4.80;;;14.40;99.90;;;;;;5054019;28;20073;-84
2023/06/07 07:41:43;;;;;;;14.57;4.60;;;15.50;99.90;;;;;;5040918;28;20076;-83
2023/06/07 07:44:09;;;;;;;15.82;4.63;;;15.40;99.90;;;;;;5035514;28;20441;-83
2023/06/07 07:46:35;;;;;;;14.07;4.53;;;14.80;99.90;;;;;;5034388;28;20041;-83
2023/06/07 07:49:10;;;;;;;15.52;4.90;;;15.20;99.90;;;;;;5034277;28;20104;-84
2023/06/07 07:51:36;;;;;;;16.00;4.43;;;15.10;99.90;;;;;;5033323;28;20045;-83
2023/06/07 07:54:02;;;;;;;14.90;5.28;;;15.20;99.90;;;;;;5035008;28;20420;-84
2023/06/07 07:56:27;;;;;;;14.88;4.72;;;15.30;99.90;;;;;;5033721;28;20060;-83
2023/06/07 07:58:53;;;;;;;13.48;4.68;;;16.30;99.90;;;;;;5033233;28;20508;-84
2023/06/07 08:01:19;;;;;;;13.07;4.63;;;16.20;99.90;;;;;;5033440;28;20050;-83
2023/06/07 08:03:46;;;;;;;14.27;4.65;;;16.00;99.90;;;;;;5033825;28;20076;-83
2023/06/07 08:06:12;;;;;;;11.77;4.57;;;16.30;99.90;;;;;;5033861;28;20059;-83
2023/06/07 08:08:37;;;;;;;16.98;4.95;;;16.90;99.90;;;;;;5033706;28;20132;-83
2023/06/07 08:11:03;;;;;;;13.45;5.18;;;16.60;99.90;;;;;;5033412;28;20479;-84
2023/06/07 08:13:29;;;;;;;15.18;4.80;;;16.90;99.90;;;;;;5032769;28;20096;-84
2023/06/07 08:15:55;;;;;;;15.27;5.05;;;16.70;99.90;;;;;;5033376;28;20056;-84
2023/06/07 08:18:21;;;;;;;15.05;4.43;;;17.30;99.90;;;;;;5033035;28;20051;-84
2023/06/07 08:20:47;;;;;;;13.55;3.92;;;16.90;99.90;;;;;;5032374;28;20132;-83
2023/06/07 08:23:12;;;;;;;11.65;3.88;;;16.90;99.90;;;;;;5032860;28;20095;-84
2023/06/07 08:25:38;;;;;;;13.77;4.35;;;17.40;99.90;;;;;;5033232;28;20072;-83
2023/06/07 08:28:04;;;;;;;14.00;4.82;;;17.30;99.90;;;;;;5032331;28;20042;-84
2023/06/07 08:30:30;;;;;;;14.40;4.35;;;17.50;99.90;;;;;;5034990;28;20057;-83
2023/06/07 08:32:56;;;;;;;16.20;4.82;;;17.10;99.90;;;;;;5034570;28;20034;-83
2023/06/07 08:35:22;;;;;;;12.05;4.22;;;17.20;99.90;;;;;;5033118;28;20049;-84
2023/06/07 08:37:47;;;;;;;12.55;4.00;;;17.30;99.90;;;;;;5032854;28;20044;-83
2023/06/07 08:40:17;;;;;;;11.45;4.05;;;17.90;99.90;;;;;;5032591;28;20081;-84
2023/06/07 08:42:42;;;;;;;13.63;4.50;;;17.60;99.90;;;;;;5033552;28;20049;-83
2023/06/07 08:45:08;;;;;;;12.60;4.30;;;17.80;99.90;;;;;;5032931;28;20493;-83
2023/06/07 08:47:35;;;;;;;13.82;4.63;;;17.70;99.90;;;;;;5032296;28;20034;-83
2023/06/07 08:50:02;;;;;;;12.40;4.60;;;17.70;99.90;;;;;;5032439;28;20060;-83
2023/06/07 08:52:30;;;;;;;12.48;4.05;;;17.70;99.90;;;;;;5032063;28;20045;-83
2023/06/07 08:55:03;;;;;;;11.85;4.15;;;17.80;99.90;;;;;;5032983;28;20151;-83
2023/06/07 08:57:30;;;;;;;14.68;4.60;;;17.80;99.90;;;;;;5032324;28;20050;-83
2023/06/07 08:59:57;;;;;;;14.38;4.90;;;18.10;99.90;;;;;;5033920;28;20082;-84
2023/06/07 09:02:24;;;;;;;13.75;4.57;;;18.00;99.90;;;;;;5031445;28;20441;-83
2023/06/07 09:04:51;;;;;;;12.32;4.60;;;18.00;99.90;;;;;;5032441;28;20041;-83
2023/06/07 09:07:17;;;;;;;13.00;4.80;;;18.20;99.90;;;;;;5033140;28;20489;-83
2023/06/07 09:09:43;;;;;;;12.80;4.63;;;18.20;99.90;;;;;;5031535;28;20048;-82
2023/06/07 09:12:12;;;;;;;12.95;4.25;;;18.40;99.90;;;;;;5033494;28;20087;-82
2023/06/07 09:14:40;;;;;;;16.38;4.80;;;18.70;99.90;;;;;;5033688;28;20041;-83
2023/06/07 09:17:05;;;;;;;13.52;4.57;;;18.70;99.90;;;;;;5031767;28;20071;-83
2023/06/07 09:19:41;;;;;;;11.90;4.50;;;18.80;99.90;;;;;;5032109;28;20497;-83
2023/06/07 09:22:09;;;;;;;14.27;4.68;;;19.00;99.90;;;;;;5033041;28;20106;-84
2023/06/07 09:24:37;;;;;;;13.77;4.80;;;19.20;99.90;;;;;;5032885;28;20085;-83
2023/06/07 09:27:04;;;;;;;12.68;4.18;;;19.30;99.90;;;;;;5032604;28;20084;-83
2023/06/07 09:29:41;;;;;;;14.63;5.13;;;19.50;99.90;;;;;;5033163;28;20033;-82
2023/06/07 09:32:18;;;;;;;12.82;4.32;;;19.30;99.90;;;;;;5031837;28;20433;-84
2023/06/07 09:34:44;;;;;;;12.68;4.30;;;19.30;99.90;;;;;;5033261;28;20120;-83
2023/06/07 09:37:09;;;;;;;11.02;4.22;;;19.50;99.90;;;;;;5030925;28;20049;-84
2023/06/07 09:39:37;;;;;;;12.68;4.38;;;19.50;99.90;;;;;;5033131;28;20393;-84
2023/06/07 09:42:16;;;;;;;13.90;4.43;;;19.50;99.90;;;;;;5033106;28;20050;-83
2023/06/07 09:44:42;;;;;;;14.27;4.60;;;19.70;99.90;;;;;;5031271;28;20633;-83
2023/06/07 09:47:20;;;;;;;13.57;4.32;;;19.80;99.90;;;;;;5032895;28;20060;-84
2023/06/07 09:49:46;;;;;;;13.43;4.10;;;19.90;99.90;;;;;;5031768;28;20107;-84
2023/06/07 09:52:15;;;;;;;14.77;3.78;;;20.00;99.90;;;;;;5030377;28;20280;-84
2023/06/07 09:54:42;;;;;;;11.45;4.05;;;20.10;99.90;;;;;;5033159;28;20052;-83
2023/06/07 09:57:11;;;;;;;11.68;4.00;;;20.10;99.90;;;;;;5031210;28;20044;-83
2023/06/07 09:59:37;;;;;;;12.98;4.20;;;20.60;99.90;;;;;;5032303;28;20552;-83
2023/06/07 10:02:25;;;;;;;13.30;4.15;;;20.30;99.90;;;;;;5031133;28;20048;-83
2023/06/07 10:04:53;;;;;;;14.00;4.15;;;20.20;99.90;;;;;;5031156;28;20064;-83
2023/06/07 10:07:21;;;;;;;11.43;3.95;;;20.40;99.90;;;;;;5032512;28;20487;-84
2023/06/07 10:09:51;;;;;;;14.02;4.25;;;20.40;99.90;;;;;;5032932;28;20087;-83
2023/06/07 10:12:19;;;;;;;11.90;5.00;;;20.50;99.90;;;;;;5031951;28;20108;-83
2023/06/07 10:14:46;;;;;;;14.93;4.70;;;20.50;99.90;;;;;;5032896;28;20393;-83
2023/06/07 10:17:14;;;;;;;15.90;4.47;;;20.50;99.90;;;;;;5031385;28;20056;-83
2023/06/07 10:19:49;;;;;;;11.07;4.03;;;20.50;99.90;;;;;;5030517;28;20080;-84
2023/06/07 10:22:27;;;;;;;12.82;4.07;;;20.70;99.90;;;;;;5031182;28;20053;-83
2023/06/07 10:25:02;;;;;;;11.02;4.13;;;20.90;99.90;;;;;;5032915;28;20441;-84
2023/06/07 10:27:38;;;;;;;15.60;4.28;;;21.20;99.90;;;;;;5031704;28;20077;-83
2023/06/07 10:30:10;;;;;;;11.90;4.30;;;21.40;99.90;;;;;;5032820;28;20049;-83
2023/06/07 10:32:38;;;;;;;13.98;4.63;;;21.40;99.90;;;;;;5031526;28;20053;-83
2023/06/07 10:35:08;;;;;;;15.02;5.28;;;21.30;99.90;;;;;;5031994;28;20046;-83
2023/06/07 10:37:36;;;;;;;15.68;5.03;;;21.40;99.30;;;;;;5032481;28;20041;-84
2023/06/07 10:40:10;;;;;;;11.95;4.00;;;21.40;99.90;;;;;;5032384;28;20091;-84
2023/06/07 10:42:40;;;;;;;12.27;4.28;;;21.70;99.90;;;;;;5040303;28;20056;-82
2023/06/07 10:45:06;;;;;;;11.60;4.50;;;22.10;99.40;;;;;;5036862;28;20095;-83
2023/06/07 10:47:32;;;;;;;12.55;4.28;;;22.20;99.00;;;;;;5043432;28;20049;-83
2023/06/07 10:49:58;;;;;;;12.15;4.10;;;22.20;98.90;;;;;;5032814;28;20044;-83
2023/06/07 10:52:26;;;;;;;13.02;4.40;;;22.30;98.80;;;;;;5032135;28;20052;-83
2023/06/07 10:54:52;;;;;;;11.40;4.30;;;22.50;98.60;;;;;;5031315;28;20494;-83
2023/06/07 10:57:37;;;;;;;12.65;3.75;;;23.10;98.40;;;;;;5032305;28;20046;-83
2023/06/07 11:00:30;;;;;;;10.85;4.13;;;23.10;97.90;;;;;;5032487;28;20037;-83
2023/06/07 11:03:04;;;;;;;12.57;4.15;;;23.00;97.40;;;;;;5030606;28;20138;-83
2023/06/07 11:05:55;;;;;;;10.95;4.40;;;23.20;97.70;;;;;;5032049;28;20116;-84
2023/06/07 11:08:28;;;;;;;13.27;4.30;;;23.40;97.10;;;;;;5030257;28;20136;-84
2023/06/07 11:11:00;;;;;;;11.60;4.30;;;23.60;96.70;;;;;;5032417;28;20133;-84
2023/06/07 11:13:27;;;;;;;12.30;4.25;;;23.60;97.00;;;;;;5030893;28;20397;-84
2023/06/07 11:15:52;;;;;;;11.85;3.65;;;23.80;96.80;;;;;;5033543;28;20072;-84
2023/06/07 11:18:18;;;;;;;13.57;4.57;;;24.00;97.10;;;;;;5035697;28;20481;-84
2023/06/07 11:20:45;;;;;;;12.15;4.03;;;23.90;96.60;;;;;;5035674;28;20488;-83
2023/06/07 11:23:40;;;;;;;11.80;4.03;;;24.10;96.40;;;;;;5033383;28;20045;-83
2023/06/07 11:26:08;;;;;;;12.35;4.10;;;24.20;95.30;;;;;;5035689;28;20095;-83
2023/06/07 11:28:37;;;;;;;12.98;4.00;;;24.40;96.20;;;;;;5034585;28;20424;-83
2023/06/07 11:31:04;;;;;;;13.05;4.10;;;24.50;95.80;;;;;;5033679;28;20702;-83
2023/06/07 11:33:30;;;;;;;10.82;3.60;;;24.40;95.60;;;;;;5035237;28;20048;-84
2023/06/07 11:35:57;;;;;;;14.75;4.03;;;24.60;95.60;;;;;;5034070;28;20048;-84
2023/06/07 11:38:24;;;;;;;10.82;3.70;;;24.40;95.50;;;;;;5032952;28;20053;-82
2023/06/07 11:40:53;;;;;;;10.80;4.40;;;24.60;95.30;;;;;;5033916;28;20049;-83
2023/06/07 11:43:40;;;;;;;13.13;3.92;;;24.60;95.20;;;;;;5034094;28;20054;-84
2023/06/07 11:46:17;;;;;;;12.30;3.72;;;24.80;94.60;;;;;;5033945;28;20037;-83
2023/06/07 11:48:43;;;;;;;12.43;4.13;;;25.00;94.70;;;;;;5035176;28;20049;-84
2023/06/07 11:51:09;;;;;;;11.55;4.57;;;25.10;95.30;;;;;;5034245;28;20038;-84
2023/06/07 11:53:54;;;;;;;13.10;4.30;;;25.20;95.00;;;;;;5033705;28;20145;-83
2023/06/07 11:56:21;;;;;;;12.77;4.05;;;25.30;94.80;;;;;;5033360;28;20041;-83
2023/06/07 11:58:57;;;;;;;11.38;4.35;;;25.40;95.00;;;;;;5032733;28;20409;-84
2023/06/07 12:01:43;;;;;;;12.93;4.20;;;25.40;94.60;;;;;;5034844;28;20503;-84
2023/06/07 12:04:15;;;;;;;11.43;4.00;;;25.40;94.00;;;;;;5033407;28;20056;-84
2023/06/07 12:06:50;;;;;;;10.60;4.13;;;25.80;94.60;;;;;;5032985;28;20049;-83
2023/06/07 12:09:18;;;;;;;13.43;5.20;;;25.60;94.10;;;;;;5033483;28;20041;-83
2023/06/07 12:11:45;;;;;;;11.65;4.60;;;25.50;94.20;;;;;;5033947;28;20553;-83
2023/06/07 12:14:38;;;;;;;12.05;4.53;;;25.60;94.10;;;;;;5033494;28;20069;-83
2023/06/07 12:17:22;;;;;;;12.32;4.60;;;25.70;93.90;;;;;;5033488;28;20378;-84
2023/06/07 12:19:47;;;;;;;11.80;5.25;;;25.70;94.20;;;;;;5033934;28;20041;-83
2023/06/07 12:22:16;;;;;;;14.20;4.75;;;25.50;94.00;;;;;;5034305;28;20049;-84
2023/06/07 12:24:47;;;;;;;11.13;4.30;;;25.50;93.80;;;;;;5033028;28;20042;-83
2023/06/07 12:27:26;;;;;;;14.32;4.60;;;25.60;93.40;;;;;;5032223;28;20049;-83
2023/06/07 12:29:55;;;;;;;14.35;4.13;;;25.60;93.60;;;;;;5033111;28;20570;-84
2023/06/07 12:32:37;;;;;;;10.52;4.07;;;25.70;93.80;;;;;;5032805;28;20052;-83
2023/06/07 12:35:07;;;;;;;13.27;4.75;;;25.80;93.40;;;;;;5032968;28;20045;-83
2023/06/07 12:37:35;;;;;;;13.48;4.32;;;26.10;93.60;;;;;;5034297;28;20132;-84
2023/06/07 12:40:19;;;;;;;13.70;4.70;;;26.30;93.10;;;;;;5033697;28;20049;-83
2023/06/07 12:42:45;;;;;;;12.52;4.72;;;26.10;92.20;;;;;;5033462;28;20111;-83